createdAt,value
2017-06-13T00:00:06.794Z,100617
2017-06-13T00:02:35.399Z,100607
2017-06-13T00:05:03.591Z,100591
2017-06-13T00:07:31.770Z,100610
2017-06-13T00:10:00.312Z,100611
2017-06-13T00:12:28.549Z,100603
2017-06-13T00:14:57.501Z,100610
2017-06-13T00:17:26.015Z,100605
2017-06-13T00:19:54.327Z,100607
2017-06-13T00:22:22.678Z,100607
2017-06-13T00:24:51.297Z,100614
2017-06-13T00:27:19.517Z,100613
2017-06-13T00:29:47.726Z,100618
2017-06-13T00:32:16.339Z,100618
2017-06-13T00:34:44.556Z,100615
2017-06-13T00:37:12.751Z,100620
2017-06-13T00:39:41.403Z,100610
2017-06-13T00:42:09.682Z,100609
2017-06-13T00:44:37.870Z,100601
2017-06-13T00:47:07.229Z,100610
2017-06-13T00:49:35.422Z,100611
2017-06-13T00:52:03.596Z,100605
2017-06-13T00:54:32.158Z,100614
2017-06-13T00:57:00.373Z,100620
2017-06-13T00:59:28.576Z,100615
2017-06-13T01:01:57.108Z,100614
2017-06-13T01:04:25.284Z,100609
2017-06-13T01:06:54.260Z,100613
2017-06-13T01:09:22.863Z,100614
2017-06-13T01:11:51.784Z,100601
2017-06-13T01:14:19.977Z,100604
2017-06-13T01:16:48.587Z,100602
2017-06-13T01:19:16.770Z,100600
2017-06-13T01:21:44.988Z,100609
2017-06-13T01:24:13.609Z,100609
2017-06-13T01:26:41.783Z,100603
2017-06-13T01:29:10.034Z,100602
2017-06-13T01:31:38.604Z,100610
2017-06-13T01:34:06.774Z,100603
2017-06-13T01:36:35.043Z,100605
2017-06-13T01:39:03.683Z,100590
2017-06-13T01:41:31.861Z,100597
2017-06-13T01:44:00.033Z,100592
2017-06-13T01:46:28.815Z,100601
2017-06-13T01:48:56.990Z,100599
2017-06-13T01:51:25.170Z,100605
2017-06-13T01:53:57.563Z,100592
2017-06-13T01:56:26.509Z,100602
2017-06-13T01:58:55.082Z,100601
2017-06-13T02:01:23.279Z,100598
2017-06-13T02:03:51.470Z,100603
2017-06-13T02:06:20.131Z,100594
2017-06-13T02:08:48.303Z,100603
2017-06-13T02:11:16.467Z,100600
2017-06-13T02:13:45.152Z,100596
2017-06-13T02:16:13.348Z,100592
2017-06-13T02:18:41.527Z,100590
2017-06-13T02:21:10.910Z,100600
2017-06-13T02:23:39.079Z,100601
2017-06-13T02:26:07.291Z,100603
2017-06-13T02:28:35.807Z,100605
2017-06-13T02:31:04.022Z,100609
2017-06-13T02:33:32.210Z,100607
2017-06-13T02:36:00.771Z,100608
2017-06-13T02:38:28.956Z,100608
2017-06-13T02:40:57.922Z,100610
2017-06-13T02:43:26.457Z,100605
2017-06-13T02:45:54.630Z,100611
2017-06-13T02:48:22.857Z,100602
2017-06-13T02:50:51.450Z,100605
2017-06-13T02:53:19.637Z,100595
2017-06-13T02:55:47.818Z,100608
2017-06-13T02:58:17.122Z,100605
2017-06-13T03:00:45.318Z,100601
2017-06-13T03:03:13.498Z,100599
2017-06-13T03:05:42.218Z,100600
2017-06-13T03:08:10.429Z,100597
2017-06-13T03:10:39.376Z,100601
2017-06-13T03:13:07.956Z,100613
2017-06-13T03:15:36.134Z,100605
2017-06-13T03:18:04.310Z,100609
2017-06-13T03:20:33.097Z,100608
2017-06-13T03:23:01.307Z,100607
2017-06-13T03:25:30.259Z,100617
2017-06-13T03:27:58.863Z,100614
2017-06-13T03:30:27.041Z,100623
2017-06-13T03:32:56.021Z,100623
2017-06-13T03:35:24.646Z,100623
2017-06-13T03:37:52.809Z,100620
2017-06-13T03:40:21.752Z,100631
2017-06-13T03:42:50.435Z,100623
2017-06-13T03:45:18.698Z,100625
2017-06-13T03:47:46.930Z,100628
2017-06-13T03:50:16.405Z,100632
2017-06-13T03:52:44.619Z,100628
2017-06-13T03:55:12.857Z,100624
2017-06-13T03:57:42.841Z,100633
2017-06-13T04:00:11.166Z,100634
2017-06-13T04:02:39.356Z,100638
2017-06-13T04:05:08.005Z,100636
2017-06-13T04:07:36.198Z,100634
2017-06-13T04:10:04.473Z,100640
2017-06-13T04:12:33.050Z,100639
2017-06-13T04:15:02.078Z,100628
2017-06-13T04:17:30.350Z,100641
2017-06-13T04:19:58.919Z,100642
2017-06-13T04:22:27.115Z,100647
2017-06-13T04:24:55.343Z,100647
2017-06-13T04:27:24.638Z,100649
2017-06-13T04:29:52.872Z,100652
2017-06-13T04:32:21.169Z,100653
2017-06-13T04:34:50.198Z,100655
2017-06-13T04:37:18.377Z,100659
2017-06-13T04:39:46.578Z,100664
2017-06-13T04:42:15.101Z,100658
2017-06-13T04:44:43.282Z,100656
2017-06-13T04:47:11.438Z,100660
2017-06-13T04:49:40.069Z,100668
2017-06-13T04:52:08.367Z,100661
2017-06-13T04:54:36.619Z,100661
2017-06-13T04:57:05.182Z,100664
2017-06-13T04:59:34.194Z,100663
2017-06-13T05:02:02.369Z,100655
2017-06-13T05:04:31.006Z,100667
2017-06-13T05:06:59.199Z,100678
2017-06-13T05:09:27.437Z,100680
2017-06-13T05:11:55.978Z,100668
2017-06-13T05:14:24.706Z,100679
2017-06-13T05:16:52.900Z,100680
2017-06-13T05:19:21.499Z,100677
2017-06-13T05:21:49.701Z,100677
2017-06-13T05:24:17.911Z,100676
2017-06-13T05:26:46.451Z,100681
2017-06-13T05:29:14.630Z,100685
2017-06-13T05:31:42.919Z,100692
2017-06-13T05:34:11.422Z,100691
2017-06-13T05:36:39.642Z,100688
2017-06-13T05:39:07.844Z,100686
2017-06-13T05:41:36.770Z,100698
2017-06-13T05:44:05.015Z,100692
2017-06-13T05:46:33.178Z,100693
2017-06-13T05:49:01.714Z,100694
2017-06-13T05:51:30.683Z,100703
2017-06-13T05:53:58.866Z,100698
2017-06-13T05:56:27.439Z,100694
2017-06-13T05:58:55.665Z,100703
2017-06-13T06:01:23.879Z,100700
2017-06-13T06:03:52.461Z,100716
2017-06-13T06:06:20.659Z,100704
2017-06-13T06:08:48.873Z,100713
2017-06-13T06:11:17.516Z,100719
2017-06-13T06:13:45.710Z,100724
2017-06-13T06:16:13.929Z,100730
2017-06-13T06:18:42.633Z,100717
2017-06-13T06:21:10.826Z,100716
2017-06-13T06:23:39.095Z,100712
2017-06-13T06:26:07.755Z,100724
2017-06-13T06:28:35.943Z,100718
2017-06-13T06:31:04.962Z,100726
2017-06-13T06:33:33.795Z,100726
2017-06-13T06:36:01.995Z,100727
2017-06-13T06:38:30.196Z,100729
2017-06-13T06:40:59.667Z,100730
2017-06-13T06:43:27.872Z,100737
2017-06-13T06:45:56.065Z,100737
2017-06-13T06:48:25.416Z,100736
2017-06-13T06:50:53.604Z,100733
2017-06-13T06:53:21.777Z,100738
2017-06-13T06:55:50.949Z,100744
2017-06-13T06:58:19.251Z,100743
2017-06-13T07:00:48.286Z,100750
2017-06-13T07:03:16.811Z,100744
2017-06-13T07:05:45.081Z,100750
2017-06-13T07:08:13.319Z,100753
2017-06-13T07:10:42.470Z,100754
2017-06-13T07:13:10.787Z,100765
2017-06-13T07:15:39.327Z,100764
2017-06-13T07:18:08.370Z,100772
2017-06-13T07:20:36.940Z,100768
2017-06-13T07:23:05.238Z,100776
2017-06-13T07:25:33.758Z,100783
2017-06-13T07:28:02.595Z,100765
2017-06-13T07:30:31.233Z,100780
2017-06-13T07:32:59.856Z,100792
2017-06-13T07:35:28.186Z,100787
2017-06-13T07:37:57.913Z,100785
2017-06-13T07:40:26.754Z,100793
2017-06-13T07:42:55.337Z,100802
2017-06-13T07:45:24.346Z,100801
2017-06-13T07:47:53.170Z,100803
2017-06-13T07:50:21.834Z,100808
2017-06-13T07:52:50.957Z,100805
2017-06-13T07:55:20.049Z,100813
2017-06-13T07:57:48.525Z,100810
2017-06-13T08:00:17.401Z,100805
2017-06-13T08:02:47.072Z,100817
2017-06-13T08:05:15.881Z,100814
2017-06-13T08:07:44.225Z,100813
2017-06-13T08:10:13.902Z,100821
2017-06-13T08:12:42.551Z,100816
2017-06-13T08:15:12.403Z,100823
2017-06-13T08:17:42.227Z,100812
2017-06-13T08:20:10.427Z,100806
2017-06-13T08:22:38.591Z,100808
2017-06-13T08:25:07.946Z,100801
2017-06-13T08:27:36.569Z,100808
2017-06-13T08:30:05.691Z,100810
2017-06-13T08:32:34.299Z,100809
2017-06-13T08:35:02.946Z,100811
2017-06-13T08:37:31.480Z,100818
2017-06-13T08:40:00.022Z,100826
2017-06-13T08:42:28.296Z,100833
2017-06-13T08:44:57.433Z,100827
2017-06-13T08:47:26.374Z,100836
2017-06-13T08:49:54.565Z,100831
2017-06-13T08:52:22.808Z,100831
2017-06-13T08:54:54.174Z,100844
2017-06-13T08:57:22.570Z,100844
2017-06-13T08:59:51.708Z,100836
2017-06-13T09:02:20.627Z,100845
2017-06-13T09:17:39.772Z,100853
2017-06-13T09:20:08.468Z,100854
2017-06-13T09:22:37.865Z,100859
2017-06-13T09:25:07.130Z,100852
2017-06-13T09:27:36.066Z,100858
2017-06-13T09:30:04.629Z,100863
2017-06-13T09:32:33.706Z,100856
2017-06-13T09:35:02.595Z,100869
2017-06-13T09:37:30.998Z,100867
2017-06-13T09:40:00.595Z,100867
2017-06-13T09:42:28.791Z,100860
2017-06-13T09:44:58.966Z,100863
2017-06-13T09:47:28.190Z,100860
2017-06-13T09:49:56.971Z,100855
2017-06-13T09:52:25.768Z,100853
2017-06-13T09:54:55.101Z,100862
2017-06-13T09:57:25.440Z,100863
2017-06-13T09:59:53.692Z,100866
2017-06-13T10:02:22.307Z,100860
2017-06-13T10:04:50.811Z,100864
2017-06-13T10:07:19.076Z,100864
2017-06-13T10:09:48.077Z,100872
2017-06-13T10:12:16.885Z,100870
2017-06-13T10:14:45.921Z,100886
2017-06-13T10:17:14.479Z,100876
2017-06-13T10:19:43.194Z,100886
2017-06-13T10:22:12.229Z,100892
2017-06-13T10:24:43.118Z,100886
2017-06-13T10:27:11.301Z,100882
2017-06-13T10:29:40.262Z,100894
2017-06-13T10:32:08.882Z,100892
2017-06-13T10:34:37.288Z,100894
2017-06-13T10:37:05.455Z,100894
2017-06-13T10:39:33.981Z,100899
2017-06-13T10:42:02.157Z,100908
2017-06-13T10:44:30.467Z,100909
2017-06-13T10:46:59.941Z,100915
2017-06-13T10:49:28.120Z,100916
2017-06-13T10:51:56.307Z,100926
2017-06-13T10:54:25.621Z,100926
2017-06-13T10:56:53.790Z,100923
2017-06-13T10:59:21.986Z,100927
2017-06-13T11:01:50.612Z,100922
2017-06-13T11:04:18.815Z,100929
2017-06-13T11:06:47.035Z,100935
2017-06-13T11:09:15.552Z,100936
2017-06-13T11:11:43.856Z,100917
2017-06-13T11:14:12.015Z,100919
2017-06-13T11:16:40.664Z,100927
2017-06-13T11:19:08.836Z,100929
2017-06-13T11:21:37.048Z,100932
2017-06-13T11:24:05.586Z,100923
2017-06-13T11:26:33.778Z,100930
2017-06-13T11:29:01.946Z,100935
2017-06-13T11:31:31.336Z,100935
2017-06-13T11:33:59.575Z,100943
2017-06-13T11:36:27.764Z,100933
2017-06-13T11:38:56.371Z,100939
2017-06-13T11:41:24.576Z,100947
2017-06-13T11:43:53.533Z,100942
2017-06-13T11:46:22.123Z,100948
2017-06-13T11:48:50.339Z,100953
2017-06-13T11:51:18.537Z,100952
2017-06-13T11:53:47.244Z,100953
2017-06-13T11:56:15.409Z,100952
2017-06-13T11:58:43.598Z,100958
2017-06-13T12:01:12.211Z,100958
2017-06-13T12:03:41.184Z,100955
2017-06-13T12:06:09.366Z,100966
2017-06-13T12:08:37.953Z,100956
2017-06-13T12:11:06.150Z,100971
2017-06-13T12:13:34.325Z,100960
2017-06-13T12:16:03.015Z,100959
2017-06-13T12:18:31.200Z,100961
2017-06-13T12:20:59.591Z,100972
2017-06-13T12:23:28.103Z,100982
2017-06-13T12:25:56.279Z,100976
2017-06-13T12:28:24.456Z,100974
2017-06-13T12:30:53.845Z,100972
2017-06-13T12:33:22.327Z,100973
2017-06-13T12:35:50.505Z,100978
2017-06-13T12:38:19.093Z,100973
2017-06-13T12:40:47.289Z,100978
2017-06-13T12:43:15.494Z,100979
2017-06-13T12:45:44.219Z,100967
2017-06-13T12:48:12.978Z,100970
2017-06-13T12:50:41.161Z,100972
2017-06-13T12:53:09.777Z,100961
2017-06-13T12:55:37.982Z,100968
2017-06-13T12:58:06.187Z,100973
2017-06-13T13:00:34.847Z,100957
2017-06-13T13:03:03.054Z,100967
2017-06-13T13:05:31.270Z,100967
2017-06-13T13:07:59.797Z,100975
2017-06-13T13:10:28.002Z,100977
2017-06-13T13:12:56.212Z,100985
2017-06-13T13:15:24.757Z,100985
2017-06-13T13:20:28.675Z,100980
2017-06-13T13:22:56.846Z,100983
2017-06-13T13:25:25.034Z,100991
2017-06-13T13:27:54.396Z,100982
2017-06-13T13:30:22.617Z,101002
2017-06-13T13:32:50.834Z,100998
2017-06-13T13:35:20.166Z,101004
2017-06-13T13:37:48.330Z,101002
2017-06-13T13:40:16.528Z,101000
2017-06-13T13:42:45.063Z,101007
2017-06-13T13:45:13.323Z,101008
2017-06-13T13:47:41.526Z,100995
2017-06-13T13:50:11.694Z,101004
2017-06-13T13:52:40.610Z,101004
2017-06-13T13:55:08.840Z,101012
2017-06-13T13:57:38.219Z,101013
2017-06-13T14:00:06.440Z,101028
2017-06-13T14:02:34.669Z,101029
2017-06-13T14:05:03.216Z,101030
2017-06-13T14:07:31.491Z,101029
2017-06-13T14:09:59.674Z,101028
2017-06-13T14:12:28.222Z,101025
2017-06-13T14:14:56.453Z,101029
2017-06-13T14:17:24.614Z,101026
2017-06-13T14:19:53.132Z,101039
2017-06-13T14:22:21.552Z,101036
2017-06-13T14:24:49.951Z,101047
2017-06-13T14:27:18.474Z,101031
2017-06-13T14:29:46.649Z,101035
2017-06-13T14:32:14.832Z,101037
2017-06-13T14:34:43.517Z,101039
2017-06-13T14:37:11.710Z,101034
2017-06-13T14:39:39.995Z,101036
2017-06-13T14:42:08.691Z,101034
2017-06-13T14:44:36.894Z,101027
2017-06-13T14:47:06.063Z,101031
2017-06-13T14:49:34.600Z,101027
2017-06-13T14:52:02.811Z,101034
2017-06-13T14:54:31.237Z,101031
2017-06-13T14:56:59.890Z,101032
2017-06-13T14:59:28.973Z,101031
2017-06-13T15:01:57.152Z,101040
2017-06-13T15:04:25.746Z,101035
2017-06-13T15:06:53.924Z,101042
2017-06-13T15:09:22.169Z,101041
2017-06-13T15:11:50.849Z,101034
2017-06-13T15:14:19.046Z,101038
2017-06-13T15:16:47.290Z,101036
2017-06-13T15:19:15.813Z,101036
2017-06-13T15:21:43.996Z,101047
2017-06-13T15:24:12.268Z,101043
2017-06-13T15:26:40.847Z,101049
2017-06-13T15:29:09.115Z,101050
2017-06-13T15:31:37.297Z,101048
2017-06-13T15:34:05.885Z,101044
2017-06-13T15:36:34.131Z,101052
2017-06-13T15:39:02.380Z,101051
2017-06-13T15:41:30.925Z,101052
2017-06-13T15:43:59.870Z,101052
2017-06-13T15:46:28.044Z,101046
2017-06-13T15:48:56.601Z,101051
2017-06-13T15:51:24.812Z,101059
2017-06-13T15:53:53.027Z,101062
2017-06-13T15:56:22.399Z,101059
2017-06-13T15:58:50.594Z,101061
2017-06-13T16:01:19.610Z,101056
2017-06-13T16:03:48.168Z,101053
2017-06-13T16:06:17.162Z,101047
2017-06-13T16:08:46.134Z,101050
2017-06-13T16:11:15.530Z,101052
2017-06-13T16:13:43.711Z,101053
2017-06-13T16:16:11.909Z,101051
2017-06-13T16:18:40.480Z,101044
2017-06-13T16:21:08.718Z,101040
2017-06-13T16:23:37.911Z,101061
2017-06-13T16:26:06.501Z,101051
2017-06-13T16:28:34.686Z,101048
2017-06-13T16:31:02.894Z,101051
2017-06-13T16:33:31.661Z,101038
2017-06-13T16:35:59.862Z,101047
2017-06-13T16:38:28.016Z,101043
2017-06-13T16:40:57.294Z,101042
2017-06-13T16:43:25.507Z,101040
2017-06-13T16:45:53.734Z,101039
2017-06-13T16:48:22.663Z,101041
2017-06-13T16:50:51.619Z,101041
2017-06-13T16:53:19.798Z,101037
2017-06-13T16:55:48.327Z,101036
2017-06-13T16:58:16.506Z,101040
2017-06-13T17:00:45.689Z,101037
2017-06-13T17:03:14.346Z,101043
2017-06-13T17:05:42.538Z,101042
2017-06-13T17:08:10.861Z,101047
2017-06-13T17:10:39.478Z,101050
2017-06-13T17:13:08.504Z,101059
2017-06-13T17:15:36.689Z,101058
2017-06-13T17:18:05.326Z,101051
2017-06-13T17:20:33.578Z,101052
2017-06-13T17:23:01.831Z,101049
2017-06-13T17:25:30.393Z,101051
2017-06-13T17:27:58.602Z,101046
2017-06-13T17:30:26.805Z,101056
2017-06-13T17:32:55.373Z,101060
2017-06-13T17:35:23.613Z,101056
2017-06-13T17:37:51.815Z,101054
2017-06-13T17:40:20.386Z,101054
2017-06-13T17:42:48.600Z,101062
2017-06-13T17:45:17.592Z,101061
2017-06-13T17:47:46.939Z,101057
2017-06-13T17:50:15.194Z,101057
2017-06-13T17:52:43.408Z,101059
2017-06-13T17:55:11.934Z,101062
2017-06-13T17:57:40.124Z,101061
2017-06-13T18:00:09.127Z,101071
2017-06-13T18:02:37.786Z,101061
2017-06-13T18:05:06.074Z,101072
2017-06-13T18:07:34.307Z,101074
2017-06-13T18:10:02.880Z,101069
2017-06-13T18:12:31.110Z,101063
2017-06-13T18:14:59.319Z,101071
2017-06-13T18:17:27.800Z,101067
2017-06-13T18:19:55.999Z,101061
2017-06-13T18:22:24.243Z,101064
2017-06-13T18:24:52.683Z,101059
2017-06-13T18:27:20.935Z,101068
2017-06-13T18:29:49.959Z,101068
2017-06-13T18:32:18.329Z,101063
2017-06-13T18:34:46.545Z,101055
2017-06-13T18:37:15.225Z,101055
2017-06-13T18:39:43.637Z,101065
2017-06-13T18:42:11.935Z,101059
2017-06-13T18:44:40.145Z,101062
2017-06-13T18:47:08.617Z,101067
2017-06-13T18:49:36.826Z,101071
2017-06-13T18:52:05.067Z,101069
2017-06-13T18:54:33.447Z,101069
2017-06-13T18:57:01.646Z,101073
2017-06-13T18:59:29.907Z,101072
2017-06-13T19:01:58.323Z,101084
2017-06-13T19:04:26.536Z,101075
2017-06-13T19:06:54.714Z,101083
2017-06-13T19:09:23.182Z,101087
2017-06-13T19:11:51.394Z,101093
2017-06-13T19:14:19.678Z,101095
2017-06-13T19:16:48.127Z,101089
2017-06-13T19:19:16.349Z,101095
2017-06-13T19:21:44.573Z,101096
2017-06-13T19:24:12.983Z,101089
2017-06-13T19:26:41.247Z,101096
2017-06-13T19:29:09.481Z,101093
2017-06-13T19:31:37.867Z,101089
2017-06-13T19:34:06.076Z,101095
2017-06-13T19:36:34.300Z,101100
2017-06-13T19:39:02.693Z,101118
2017-06-13T19:41:31.004Z,101107
2017-06-13T19:43:59.225Z,101110
2017-06-13T19:46:27.718Z,101107
2017-06-13T19:48:55.964Z,101112
2017-06-13T19:51:24.988Z,101121
2017-06-13T19:53:53.531Z,101124
2017-06-13T19:56:21.757Z,101123
2017-06-13T19:58:50.771Z,101128
2017-06-13T20:01:19.226Z,101121
2017-06-13T20:03:48.164Z,101120
2017-06-13T20:06:16.379Z,101124
2017-06-13T20:21:43.641Z,101149
2017-06-13T20:24:11.834Z,101145
2017-06-13T20:26:40.007Z,101143
2017-06-13T20:29:14.249Z,101151
2017-06-13T20:31:43.217Z,101150
2017-06-13T20:34:11.463Z,101146
2017-06-13T20:36:39.892Z,101152
2017-06-13T20:39:08.827Z,101147
2017-06-13T20:41:37.057Z,101158
2017-06-13T20:44:06.241Z,101148
2017-06-13T20:46:34.498Z,101153
2017-06-13T20:49:02.684Z,101154
2017-06-13T20:51:31.164Z,101149
2017-06-13T20:53:59.346Z,101150
2017-06-13T20:56:27.536Z,101152
2017-06-13T20:58:56.726Z,101145
2017-06-13T21:01:24.960Z,101155
2017-06-13T21:03:53.283Z,101157
2017-06-13T21:06:21.675Z,101164
2017-06-13T21:08:49.896Z,101154
2017-06-13T21:11:18.117Z,101163
2017-06-13T21:13:47.227Z,101162
2017-06-13T21:16:15.434Z,101157
2017-06-13T21:18:43.614Z,101160
2017-06-13T21:21:12.025Z,101152
2017-06-13T21:23:40.985Z,101154
2017-06-13T21:26:09.210Z,101156
2017-06-13T21:28:37.766Z,101160
2017-06-13T21:31:05.985Z,101168
2017-06-13T21:33:34.264Z,101166
2017-06-13T21:36:03.428Z,101165
2017-06-13T21:38:31.634Z,101171
2017-06-13T21:40:59.928Z,101164
2017-06-13T21:43:28.322Z,101165
2017-06-13T21:45:56.520Z,101161
2017-06-13T21:48:25.512Z,101166
2017-06-13T21:50:54.894Z,101165
2017-06-13T21:53:23.084Z,101160
2017-06-13T21:55:52.157Z,101160
2017-06-13T21:58:20.566Z,101162
2017-06-13T22:00:49.720Z,101169
2017-06-13T22:03:17.933Z,101170
2017-06-13T22:05:46.327Z,101178
2017-06-13T22:08:14.544Z,101176
2017-06-13T22:10:42.736Z,101172
2017-06-13T22:13:11.167Z,101180
2017-06-13T22:15:39.358Z,101187
2017-06-13T22:18:07.590Z,101186
2017-06-13T22:20:36.006Z,101179
2017-06-13T22:23:04.191Z,101186
2017-06-13T22:25:32.416Z,101190
2017-06-13T22:28:00.838Z,101188
2017-06-13T22:30:29.059Z,101189
2017-06-13T22:32:57.255Z,101182
2017-06-13T22:35:25.656Z,101183
2017-06-13T22:37:54.097Z,101194
2017-06-13T22:40:23.053Z,101190
2017-06-13T22:42:51.469Z,101192
2017-06-13T22:45:19.662Z,101200
2017-06-13T22:47:47.870Z,101204
2017-06-13T22:50:16.270Z,101197
2017-06-13T22:52:44.452Z,101208
2017-06-13T22:55:13.466Z,101220
2017-06-13T22:57:41.823Z,101216
2017-06-13T23:00:10.786Z,101216
2017-06-13T23:02:38.991Z,101219
2017-06-13T23:05:07.413Z,101222
2017-06-13T23:07:35.649Z,101205
2017-06-13T23:10:03.850Z,101215
2017-06-13T23:12:32.222Z,101212
2017-06-13T23:15:00.435Z,101210
2017-06-13T23:17:28.612Z,101204
2017-06-13T23:19:56.982Z,101204
2017-06-13T23:22:25.179Z,101200
2017-06-13T23:24:53.374Z,101200
2017-06-13T23:27:21.738Z,101208
2017-06-13T23:29:49.938Z,101211
2017-06-13T23:32:18.149Z,101204
2017-06-13T23:34:46.503Z,101215
2017-06-13T23:37:14.701Z,101209
2017-06-13T23:39:42.877Z,101213
2017-06-13T23:42:11.216Z,101216
2017-06-13T23:44:39.390Z,101215
2017-06-13T23:47:07.613Z,101215
2017-06-13T23:49:35.971Z,101215
2017-06-13T23:52:04.186Z,101206
2017-06-13T23:54:32.366Z,101212
2017-06-13T23:57:01.500Z,101206
2017-06-13T23:59:29.724Z,101211
